createdAt,value
2017-04-24T00:00:18.993Z,8.49
2017-04-24T00:00:45.072Z,8.48
2017-04-24T00:01:11.152Z,8.51
2017-04-24T00:01:37.257Z,8.48
2017-04-24T00:02:03.362Z,8.48
2017-04-24T00:02:29.442Z,8.51
2017-04-24T00:02:55.545Z,8.46
2017-04-24T00:03:21.648Z,8.46
2017-04-24T00:03:47.750Z,8.44
2017-04-24T00:04:13.899Z,8.37
2017-04-24T00:04:40.006Z,8.45
2017-04-24T00:05:06.110Z,8.41
2017-04-24T00:05:32.234Z,8.37
2017-04-24T00:05:58.336Z,8.41
2017-04-24T00:06:24.433Z,8.37
2017-04-24T00:06:50.560Z,8.41
2017-04-24T00:07:16.664Z,8.42
2017-04-24T00:07:42.813Z,8.33
2017-04-24T00:08:08.941Z,8.38
2017-04-24T00:08:35.065Z,8.38
2017-04-24T00:09:01.217Z,8.41
2017-04-24T00:09:27.322Z,8.33
2017-04-24T00:09:53.426Z,8.3
2017-04-24T00:10:19.527Z,8.28
2017-04-24T00:10:45.609Z,8.36
2017-04-24T00:11:11.687Z,8.27
2017-04-24T00:11:37.794Z,8.33
2017-04-24T00:12:03.872Z,8.31
2017-04-24T00:12:29.953Z,8.33
2017-04-24T00:12:56.055Z,8.38
2017-04-24T00:13:22.183Z,8.36
2017-04-24T00:13:48.284Z,8.36
2017-04-24T00:14:14.456Z,8.38
2017-04-24T00:14:40.558Z,8.42
2017-04-24T00:15:06.685Z,8.37
2017-04-24T00:15:32.787Z,8.33
2017-04-24T00:15:58.865Z,8.38
2017-04-24T00:16:24.967Z,8.38
2017-04-24T00:16:51.073Z,8.31
2017-04-24T00:17:17.201Z,8.28
2017-04-24T00:17:43.308Z,8.33
2017-04-24T00:18:09.459Z,8.33
2017-04-24T00:18:35.538Z,8.33
2017-04-24T00:19:01.642Z,8.36
2017-04-24T00:19:27.770Z,8.34
2017-04-24T00:19:53.874Z,8.36
2017-04-24T00:20:19.974Z,8.37
2017-04-24T00:20:46.058Z,8.28
2017-04-24T00:21:12.161Z,8.31
2017-04-24T00:21:38.264Z,8.31
2017-04-24T00:22:04.343Z,8.31
2017-04-24T00:22:30.446Z,8.28
2017-04-24T00:22:56.526Z,8.33
2017-04-24T00:23:22.627Z,8.33
2017-04-24T00:23:48.774Z,8.34
2017-04-24T00:24:14.899Z,8.3
2017-04-24T00:24:41.025Z,8.34
2017-04-24T00:25:07.152Z,8.28
2017-04-24T00:25:33.236Z,8.28
2017-04-24T00:25:59.313Z,8.16
2017-04-24T00:26:25.416Z,8.16
2017-04-24T00:26:51.517Z,8.23
2017-04-24T00:27:17.623Z,8.13
2017-04-24T00:27:43.726Z,8.18
2017-04-24T00:28:09.878Z,8.2
2017-04-24T00:28:36.030Z,8.16
2017-04-24T00:29:02.134Z,8.18
2017-04-24T00:29:28.214Z,8.18
2017-04-24T00:29:54.317Z,8.19
2017-04-24T00:30:20.423Z,8.18
2017-04-24T00:30:46.524Z,8.3
2017-04-24T00:31:12.605Z,8.27
2017-04-24T00:31:38.682Z,8.19
2017-04-24T00:32:04.781Z,8.1
2017-04-24T00:32:30.887Z,8.18
2017-04-24T00:32:57.011Z,8.12
2017-04-24T00:33:23.139Z,8.05
2017-04-24T00:33:49.289Z,8.03
2017-04-24T00:34:15.393Z,8.08
2017-04-24T00:34:41.538Z,8
2017-04-24T00:35:07.640Z,8.01
2017-04-24T00:35:33.791Z,7.94
2017-04-24T00:35:59.894Z,7.73
2017-04-24T00:36:26.022Z,7.76
2017-04-24T00:36:52.103Z,7.72
2017-04-24T00:37:18.207Z,7.75
2017-04-24T00:37:44.333Z,7.67
2017-04-24T00:38:10.455Z,7.58
2017-04-24T00:38:36.562Z,7.61
2017-04-24T00:39:02.691Z,7.56
2017-04-24T00:39:28.822Z,7.63
2017-04-24T00:39:54.925Z,7.58
2017-04-24T00:40:21.027Z,7.56
2017-04-24T00:40:47.107Z,7.56
2017-04-24T00:41:13.186Z,7.6
2017-04-24T00:41:39.268Z,7.57
2017-04-24T00:42:05.351Z,7.54
2017-04-24T00:42:31.434Z,7.56
2017-04-24T00:42:57.514Z,7.58
2017-04-24T00:43:23.619Z,7.63
2017-04-24T00:43:49.759Z,7.51
2017-04-24T00:44:15.826Z,7.53
2017-04-24T00:44:42.002Z,7.53
2017-04-24T00:45:08.081Z,7.5
2017-04-24T00:45:34.163Z,7.53
2017-04-24T00:46:00.270Z,7.56
2017-04-24T00:46:26.352Z,7.53
2017-04-24T00:46:52.453Z,7.57
2017-04-24T00:47:18.619Z,7.53
2017-04-24T00:47:44.724Z,7.54
2017-04-24T00:48:10.828Z,7.61
2017-04-24T00:48:36.956Z,7.53
2017-04-24T00:49:03.093Z,7.53
2017-04-24T00:49:29.174Z,7.56
2017-04-24T00:49:55.279Z,7.51
2017-04-24T00:50:21.405Z,7.51
2017-04-24T00:50:47.533Z,7.43
2017-04-24T00:51:13.613Z,7.51
2017-04-24T00:51:39.694Z,7.6
2017-04-24T00:52:05.775Z,7.53
2017-04-24T00:52:31.879Z,7.58
2017-04-24T00:52:58.007Z,7.5
2017-04-24T00:53:24.112Z,7.42
2017-04-24T00:53:50.239Z,7.5
2017-04-24T00:54:16.322Z,7.5
2017-04-24T00:54:42.404Z,7.45
2017-04-24T00:55:08.504Z,7.5
2017-04-24T00:55:34.587Z,7.5
2017-04-24T00:56:00.714Z,7.53
2017-04-24T00:56:26.820Z,7.5
2017-04-24T00:56:52.926Z,7.56
2017-04-24T00:57:19.006Z,7.51
2017-04-24T00:57:45.089Z,7.51
2017-04-24T00:58:11.166Z,7.53
2017-04-24T00:58:37.270Z,7.58
2017-04-24T00:59:03.421Z,7.6
2017-04-24T00:59:29.503Z,7.66
2017-04-24T00:59:55.605Z,7.53
2017-04-24T01:00:21.707Z,7.69
2017-04-24T01:00:47.808Z,7.66
2017-04-24T01:01:13.889Z,7.61
2017-04-24T01:01:39.966Z,7.53
2017-04-24T01:02:06.045Z,7.54
2017-04-24T01:02:32.174Z,7.63
2017-04-24T01:02:58.279Z,7.61
2017-04-24T01:03:24.428Z,7.69
2017-04-24T01:03:50.508Z,7.6
2017-04-24T01:04:16.615Z,7.53
2017-04-24T01:04:42.720Z,7.56
2017-04-24T01:05:08.847Z,7.54
2017-04-24T01:05:34.926Z,7.48
2017-04-24T01:06:01.011Z,7.51
2017-04-24T01:06:27.085Z,7.48
2017-04-24T01:06:53.166Z,7.51
2017-04-24T01:07:19.268Z,7.4
2017-04-24T01:07:45.414Z,7.38
2017-04-24T01:08:11.541Z,7.4
2017-04-24T01:08:37.644Z,7.43
2017-04-24T01:09:03.725Z,7.4
2017-04-24T01:09:29.854Z,7.42
2017-04-24T01:09:55.960Z,7.47
2017-04-24T01:10:22.056Z,7.4
2017-04-24T01:10:48.185Z,7.38
2017-04-24T01:11:14.283Z,7.38
2017-04-24T01:11:40.389Z,7.47
2017-04-24T01:12:06.470Z,7.42
2017-04-24T01:12:32.573Z,7.43
2017-04-24T01:12:58.676Z,7.39
2017-04-24T01:13:24.757Z,7.47
2017-04-24T01:13:50.837Z,7.43
2017-04-24T01:14:16.920Z,7.43
2017-04-24T01:14:42.999Z,7.28
2017-04-24T01:15:09.078Z,7.28
2017-04-24T01:15:35.180Z,7.32
2017-04-24T01:16:01.284Z,7.38
2017-04-24T01:16:27.387Z,7.43
2017-04-24T01:16:53.465Z,7.4
2017-04-24T01:17:19.568Z,7.31
2017-04-24T01:17:45.697Z,7.38
2017-04-24T01:18:11.777Z,7.4
2017-04-24T01:18:37.926Z,7.36
2017-04-24T01:19:04.028Z,7.33
2017-04-24T01:19:30.130Z,7.42
2017-04-24T01:19:56.281Z,7.31
2017-04-24T01:20:22.386Z,7.39
2017-04-24T01:20:48.467Z,7.48
2017-04-24T01:21:14.547Z,7.47
2017-04-24T01:21:40.676Z,7.39
2017-04-24T01:22:06.753Z,7.38
2017-04-24T01:22:32.837Z,7.45
2017-04-24T01:22:58.940Z,7.43
2017-04-24T01:23:25.068Z,7.48
2017-04-24T01:23:51.170Z,7.36
2017-04-24T01:24:17.299Z,7.39
2017-04-24T01:24:43.425Z,7.24
2017-04-24T01:25:09.504Z,7.36
2017-04-24T01:25:35.606Z,7.38
2017-04-24T01:26:01.688Z,7.39
2017-04-24T01:26:27.793Z,7.35
2017-04-24T01:26:53.872Z,7.42
2017-04-24T01:27:19.974Z,7.33
2017-04-24T01:27:46.078Z,7.31
2017-04-24T01:28:12.228Z,7.28
2017-04-24T01:28:38.380Z,7.25
2017-04-24T01:29:04.503Z,7.31
2017-04-24T01:29:30.608Z,7.29
2017-04-24T01:29:56.691Z,7.25
2017-04-24T01:30:22.793Z,7.31
2017-04-24T01:30:48.882Z,7.4
2017-04-24T01:31:14.982Z,7.43
2017-04-24T01:31:41.085Z,7.23
2017-04-24T01:32:07.189Z,7.33
2017-04-24T01:32:33.294Z,7.38
2017-04-24T01:32:59.397Z,7.4
2017-04-24T01:33:25.523Z,7.48
2017-04-24T01:33:51.647Z,7.42
2017-04-24T01:34:17.773Z,7.42
2017-04-24T01:34:43.874Z,7.31
2017-04-24T01:35:09.979Z,7.48
2017-04-24T01:35:36.082Z,7.45
2017-04-24T01:36:02.164Z,7.4
2017-04-24T01:36:28.270Z,7.4
2017-04-24T01:36:54.349Z,7.45
2017-04-24T01:37:20.428Z,7.47
2017-04-24T01:37:46.508Z,7.43
2017-04-24T01:38:12.633Z,7.5
2017-04-24T01:38:38.760Z,7.35
2017-04-24T01:39:04.863Z,7.48
2017-04-24T01:39:30.965Z,7.39
2017-04-24T01:39:57.070Z,7.4
2017-04-24T01:40:23.174Z,7.47
2017-04-24T01:40:49.257Z,7.48
2017-04-24T01:41:15.334Z,7.42
2017-04-24T01:41:41.436Z,7.38
2017-04-24T01:42:07.540Z,7.42
2017-04-24T01:42:33.648Z,7.35
2017-04-24T01:42:59.728Z,7.47
2017-04-24T01:43:25.859Z,7.45
2017-04-24T01:43:51.972Z,7.45
2017-04-24T01:44:18.062Z,7.39
2017-04-24T01:44:44.186Z,7.43
2017-04-24T01:45:10.312Z,7.43
2017-04-24T01:45:36.415Z,7.4
2017-04-24T01:46:02.497Z,7.38
2017-04-24T01:46:28.574Z,7.38
2017-04-24T01:46:54.653Z,7.4
2017-04-24T01:47:20.734Z,7.28
2017-04-24T01:47:46.838Z,7.35
2017-04-24T01:48:12.943Z,7.24
2017-04-24T01:48:39.068Z,7.28
2017-04-24T01:49:05.169Z,7.31
2017-04-24T01:49:31.318Z,7.15
2017-04-24T01:49:57.399Z,7.18
2017-04-24T01:50:23.503Z,7.23
2017-04-24T01:50:49.608Z,7.21
2017-04-24T01:51:15.689Z,7.13
2017-04-24T01:51:41.789Z,7.18
2017-04-24T01:52:07.869Z,7.14
2017-04-24T01:52:33.973Z,7.15
2017-04-24T01:53:00.102Z,7.15
2017-04-24T01:53:26.231Z,7.13
2017-04-24T01:53:52.311Z,7.13
2017-04-24T01:54:18.412Z,7.2
2017-04-24T01:54:44.563Z,7.11
2017-04-24T01:55:10.640Z,7.17
2017-04-24T01:55:36.724Z,7.17
2017-04-24T01:56:02.827Z,7.06
2017-04-24T01:56:28.907Z,7.06
2017-04-24T01:56:55.009Z,6.97
2017-04-24T01:57:21.089Z,6.99
2017-04-24T01:57:47.216Z,6.96
2017-04-24T01:58:13.322Z,6.89
2017-04-24T01:58:39.404Z,6.92
2017-04-24T01:59:05.530Z,6.96
2017-04-24T01:59:31.636Z,6.84
2017-04-24T01:59:57.735Z,6.82
2017-04-24T02:00:23.837Z,6.92
2017-04-24T02:00:49.920Z,6.84
2017-04-24T02:01:16.024Z,6.89
2017-04-24T02:01:42.131Z,6.88
2017-04-24T02:02:08.260Z,6.75
2017-04-24T02:02:34.364Z,6.88
2017-04-24T02:03:00.467Z,6.81
2017-04-24T02:03:26.567Z,6.77
2017-04-24T02:03:52.671Z,6.74
2017-04-24T02:04:18.797Z,6.75
2017-04-24T02:04:44.901Z,6.77
2017-04-24T02:05:11.007Z,6.78
2017-04-24T02:05:37.087Z,6.82
2017-04-24T02:06:03.168Z,6.78
2017-04-24T02:06:29.245Z,6.82
2017-04-24T02:06:55.329Z,6.92
2017-04-24T02:07:21.434Z,6.84
2017-04-24T02:07:47.514Z,6.88
2017-04-24T02:08:13.638Z,6.74
2017-04-24T02:08:39.738Z,6.87
2017-04-24T02:09:05.843Z,6.75
2017-04-24T02:09:31.926Z,6.74
2017-04-24T02:09:58.056Z,6.69
2017-04-24T02:10:24.182Z,6.51
2017-04-24T02:10:50.264Z,6.69
2017-04-24T02:11:16.343Z,6.64
2017-04-24T02:11:42.421Z,6.6
2017-04-24T02:12:08.525Z,6.64
2017-04-24T02:12:34.609Z,6.6
2017-04-24T02:13:00.713Z,6.6
2017-04-24T02:13:26.839Z,6.62
2017-04-24T02:13:53.011Z,6.54
2017-04-24T02:14:19.133Z,6.57
2017-04-24T02:14:45.212Z,6.52
2017-04-24T02:15:11.294Z,6.52
2017-04-24T02:15:37.393Z,6.44
2017-04-24T02:16:03.470Z,6.48
2017-04-24T02:16:29.571Z,6.44
2017-04-24T02:16:55.651Z,6.44
2017-04-24T02:17:21.726Z,6.44
2017-04-24T02:17:47.807Z,6.51
2017-04-24T02:18:13.956Z,6.42
2017-04-24T02:18:40.063Z,6.44
2017-04-24T02:19:06.187Z,6.39
2017-04-24T02:19:32.338Z,6.41
2017-04-24T02:19:58.441Z,6.48
2017-04-24T02:20:24.543Z,6.42
2017-04-24T02:20:50.643Z,6.44
2017-04-24T02:21:16.724Z,6.41
2017-04-24T02:21:42.806Z,6.31
2017-04-24T02:22:08.917Z,6.36
2017-04-24T02:22:35.012Z,6.41
2017-04-24T02:23:01.113Z,6.45
2017-04-24T02:23:27.217Z,6.42
2017-04-24T02:23:53.348Z,6.36
2017-04-24T02:24:19.495Z,6.38
2017-04-24T02:24:45.599Z,6.36
2017-04-24T02:25:11.680Z,6.35
2017-04-24T02:25:37.811Z,6.39
2017-04-24T02:26:03.940Z,6.42
2017-04-24T02:26:30.045Z,6.36
2017-04-24T02:26:56.146Z,6.28
2017-04-24T02:27:22.259Z,6.27
2017-04-24T02:27:48.359Z,6.3
2017-04-24T02:28:14.458Z,6.31
2017-04-24T02:28:40.560Z,6.39
2017-04-24T02:29:06.665Z,6.35
2017-04-24T02:29:32.791Z,6.33
2017-04-24T02:29:58.871Z,6.39
2017-04-24T02:30:24.973Z,6.35
2017-04-24T02:30:51.052Z,6.42
2017-04-24T02:31:17.136Z,6.39
2017-04-24T02:31:43.216Z,6.28
2017-04-24T02:32:09.317Z,6.38
2017-04-24T02:32:35.397Z,6.35
2017-04-24T02:33:01.524Z,6.24
2017-04-24T02:33:27.630Z,6.19
2017-04-24T02:33:53.778Z,6.26
2017-04-24T02:34:19.885Z,6.16
2017-04-24T02:34:45.964Z,6.22
2017-04-24T02:35:12.040Z,6.28
2017-04-24T02:35:38.122Z,6.17
2017-04-24T02:36:04.206Z,6.19
2017-04-24T02:36:30.310Z,6.16
2017-04-24T02:36:56.393Z,6.2
2017-04-24T02:37:22.497Z,6.22
2017-04-24T02:37:48.573Z,6.17
2017-04-24T02:38:14.700Z,6.19
2017-04-24T02:38:40.807Z,6.2
2017-04-24T02:39:06.932Z,6.2
2017-04-24T02:39:33.064Z,6.19
2017-04-24T02:39:59.145Z,6.11
2017-04-24T02:40:25.245Z,6.22
2017-04-24T02:40:51.321Z,6.22
2017-04-24T02:41:17.422Z,6.19
2017-04-24T02:41:43.547Z,6.07
2017-04-24T02:42:09.650Z,6.01
2017-04-24T02:42:35.755Z,6.02
2017-04-24T02:43:01.858Z,6.02
2017-04-24T02:43:27.959Z,6.07
2017-04-24T02:43:54.107Z,6.02
2017-04-24T02:44:20.257Z,6.05
2017-04-24T02:44:46.360Z,6.02
2017-04-24T02:45:12.463Z,6.04
2017-04-24T02:45:38.589Z,6.04
2017-04-24T02:46:04.666Z,6.01
2017-04-24T02:46:30.746Z,6.02
2017-04-24T02:46:56.873Z,5.98
2017-04-24T02:47:22.997Z,6.01
2017-04-24T02:47:49.081Z,5.98
2017-04-24T02:48:15.205Z,6.01
2017-04-24T02:48:41.332Z,6.02
2017-04-24T02:49:07.479Z,6.08
2017-04-24T02:49:33.583Z,6.02
2017-04-24T02:49:59.664Z,5.99
2017-04-24T02:50:25.816Z,5.99
2017-04-24T02:50:51.900Z,5.98
2017-04-24T02:51:17.982Z,5.98
2017-04-24T02:51:44.085Z,5.89
2017-04-24T02:52:10.164Z,5.91
2017-04-24T02:52:36.264Z,5.94
2017-04-24T02:53:02.392Z,5.99
2017-04-24T02:53:28.517Z,5.99
2017-04-24T02:53:54.621Z,6.04
2017-04-24T02:54:20.700Z,6.01
2017-04-24T02:54:46.778Z,6.05
2017-04-24T02:55:12.884Z,5.97
2017-04-24T02:55:38.962Z,6.01
2017-04-24T02:56:05.065Z,5.98
2017-04-24T02:56:31.144Z,5.98
2017-04-24T02:56:57.226Z,5.93
2017-04-24T02:57:23.353Z,5.97
2017-04-24T02:57:49.434Z,6.05
2017-04-24T02:58:15.539Z,6.04
2017-04-24T02:58:41.687Z,6.07
2017-04-24T02:59:07.789Z,6.05
2017-04-24T02:59:33.869Z,6.11
2017-04-24T02:59:59.949Z,5.99
2017-04-24T03:00:26.079Z,5.84
2017-04-24T03:00:52.159Z,6.02
2017-04-24T03:01:18.261Z,6.01
2017-04-24T03:01:44.364Z,6.04
2017-04-24T03:02:10.466Z,6.04
2017-04-24T03:02:36.545Z,6.01
2017-04-24T03:03:02.708Z,6.04
2017-04-24T03:03:28.819Z,6.01
2017-04-24T03:03:54.925Z,6.04
2017-04-24T03:04:21.023Z,6.01
2017-04-24T03:04:47.152Z,6.09
2017-04-24T03:05:13.327Z,6.05
2017-04-24T03:05:39.410Z,6.04
2017-04-24T03:06:05.506Z,6.02
2017-04-24T03:06:31.633Z,6.09
2017-04-24T03:06:57.737Z,6.01
2017-04-24T03:07:23.869Z,6.02
2017-04-24T03:07:49.971Z,6.02
2017-04-24T03:08:16.099Z,6.02
2017-04-24T03:08:42.249Z,6.02
2017-04-24T03:09:08.371Z,5.99
2017-04-24T03:09:34.474Z,6.01
2017-04-24T03:10:00.551Z,5.98
2017-04-24T03:10:26.680Z,6.01
2017-04-24T03:10:52.759Z,5.97
2017-04-24T03:11:18.860Z,5.9
2017-04-24T03:11:44.937Z,5.98
2017-04-24T03:12:11.017Z,5.93
2017-04-24T03:12:37.122Z,5.86
2017-04-24T03:13:03.250Z,5.97
2017-04-24T03:13:29.405Z,5.82
2017-04-24T03:13:55.484Z,5.87
2017-04-24T03:14:21.589Z,5.93
2017-04-24T03:14:47.670Z,5.86
2017-04-24T03:15:13.793Z,5.97
2017-04-24T03:15:39.873Z,5.89
2017-04-24T03:16:05.954Z,5.83
2017-04-24T03:16:32.037Z,5.84
2017-04-24T03:16:58.118Z,5.82
2017-04-24T03:17:24.243Z,5.86
2017-04-24T03:17:50.322Z,5.89
2017-04-24T03:18:16.448Z,5.84
2017-04-24T03:18:42.552Z,5.8
2017-04-24T03:19:08.659Z,5.8
2017-04-24T03:19:34.762Z,5.73
2017-04-24T03:20:00.841Z,5.83
2017-04-24T03:20:26.962Z,5.69
2017-04-24T03:20:53.023Z,5.71
2017-04-24T03:21:19.104Z,5.82
2017-04-24T03:21:45.183Z,5.73
2017-04-24T03:22:11.309Z,5.79
2017-04-24T03:22:37.388Z,5.79
2017-04-24T03:23:03.470Z,5.82
2017-04-24T03:23:29.598Z,5.76
2017-04-24T03:23:55.771Z,5.71
2017-04-24T03:24:21.854Z,5.76
2017-04-24T03:24:47.982Z,5.84
2017-04-24T03:25:14.088Z,5.86
2017-04-24T03:25:40.167Z,5.79
2017-04-24T03:26:06.244Z,5.69
2017-04-24T03:26:32.343Z,5.69
2017-04-24T03:26:58.451Z,5.75
2017-04-24T03:27:24.577Z,5.69
2017-04-24T03:27:50.656Z,5.8
2017-04-24T03:28:16.759Z,5.79
2017-04-24T03:28:42.883Z,5.82
2017-04-24T03:29:09.010Z,5.75
2017-04-24T03:29:35.112Z,5.82
2017-04-24T03:30:01.215Z,5.83
2017-04-24T03:30:27.317Z,5.72
2017-04-24T03:30:53.418Z,5.76
2017-04-24T03:31:19.499Z,5.79
2017-04-24T03:31:45.602Z,5.75
2017-04-24T03:32:11.707Z,5.86
2017-04-24T03:32:37.790Z,5.75
2017-04-24T03:33:03.893Z,5.87
2017-04-24T03:33:30.020Z,5.86
2017-04-24T03:33:56.147Z,5.84
2017-04-24T03:34:22.276Z,5.83
2017-04-24T03:34:48.378Z,5.93
2017-04-24T03:35:14.479Z,5.9
2017-04-24T03:35:40.609Z,5.84
2017-04-24T03:36:06.694Z,5.9
2017-04-24T03:36:32.771Z,5.82
2017-04-24T03:36:58.853Z,5.79
2017-04-24T03:37:24.931Z,5.83
2017-04-24T03:37:51.058Z,5.87
2017-04-24T03:38:17.161Z,5.83
2017-04-24T03:38:43.306Z,5.86
2017-04-24T03:39:09.412Z,5.79
2017-04-24T03:39:35.583Z,5.83
2017-04-24T03:40:01.712Z,5.83
2017-04-24T03:40:27.835Z,5.79
2017-04-24T03:40:53.938Z,5.84
2017-04-24T03:41:20.016Z,5.97
2017-04-24T03:41:46.121Z,5.87
2017-04-24T03:42:12.207Z,5.94
2017-04-24T03:42:38.356Z,5.97
2017-04-24T03:43:04.504Z,5.89
2017-04-24T03:43:30.607Z,5.93
2017-04-24T03:43:56.732Z,5.9
2017-04-24T03:44:22.858Z,5.97
2017-04-24T03:44:48.985Z,5.9
2017-04-24T03:45:15.060Z,5.89
2017-04-24T03:45:41.144Z,5.8
2017-04-24T03:46:07.227Z,5.83
2017-04-24T03:46:33.327Z,5.83
2017-04-24T03:46:59.429Z,5.91
2017-04-24T03:47:25.531Z,5.84
2017-04-24T03:47:51.656Z,5.86
2017-04-24T03:48:17.760Z,5.84
2017-04-24T03:48:43.888Z,5.87
2017-04-24T03:49:10.013Z,5.9
2017-04-24T03:49:36.112Z,5.89
2017-04-24T03:50:02.237Z,5.93
2017-04-24T03:50:28.338Z,5.9
2017-04-24T03:50:54.443Z,5.91
2017-04-24T03:51:20.544Z,5.87
2017-04-24T03:51:46.622Z,5.94
2017-04-24T03:52:12.702Z,6.04
2017-04-24T03:52:38.808Z,5.98
2017-04-24T03:53:04.890Z,5.93
2017-04-24T03:53:31.016Z,6.04
2017-04-24T03:53:57.100Z,5.97
2017-04-24T03:54:23.193Z,5.98
2017-04-24T03:54:49.297Z,6.02
2017-04-24T03:55:15.424Z,5.91
2017-04-24T03:55:41.529Z,5.99
2017-04-24T03:56:07.633Z,5.86
2017-04-24T03:56:33.760Z,5.94
2017-04-24T03:56:59.839Z,5.89
2017-04-24T03:57:25.917Z,6.02
2017-04-24T03:57:52.021Z,6.04
2017-04-24T03:58:18.145Z,5.99
2017-04-24T03:58:44.295Z,6.05
2017-04-24T03:59:10.396Z,5.97
2017-04-24T03:59:36.496Z,5.89
2017-04-24T04:00:02.599Z,5.97
2017-04-24T04:00:28.702Z,5.87
2017-04-24T04:00:54.807Z,5.86
2017-04-24T04:01:20.883Z,5.86
2017-04-24T04:01:46.987Z,5.87
2017-04-24T04:02:13.113Z,5.91
2017-04-24T04:02:39.239Z,5.87
2017-04-24T04:03:05.366Z,5.89
2017-04-24T04:03:31.493Z,5.84
2017-04-24T04:03:57.641Z,5.83
2017-04-24T04:04:23.764Z,5.87
2017-04-24T04:04:49.866Z,5.84
2017-04-24T04:05:15.965Z,5.97
2017-04-24T04:05:42.047Z,5.9
2017-04-24T04:06:08.124Z,5.86
2017-04-24T04:06:34.225Z,5.93
2017-04-24T04:07:00.305Z,5.9
2017-04-24T04:07:26.410Z,5.86
2017-04-24T04:07:52.537Z,5.89
2017-04-24T04:08:18.618Z,5.86
2017-04-24T04:08:44.742Z,5.89
2017-04-24T04:09:10.871Z,5.89
2017-04-24T04:09:37.009Z,5.99
2017-04-24T04:10:03.134Z,5.93
2017-04-24T04:10:29.215Z,5.97
2017-04-24T04:10:55.294Z,5.89
2017-04-24T04:11:21.372Z,5.91
2017-04-24T04:11:47.477Z,5.89
2017-04-24T04:12:13.580Z,5.98
2017-04-24T04:12:39.684Z,6.04
2017-04-24T04:13:05.810Z,5.97
2017-04-24T04:13:31.886Z,5.97
2017-04-24T04:13:57.989Z,5.86
2017-04-24T04:14:24.093Z,5.97
2017-04-24T04:14:50.172Z,5.9
2017-04-24T04:15:16.252Z,5.93
2017-04-24T04:15:42.352Z,5.91
2017-04-24T04:16:08.433Z,5.97
2017-04-24T04:16:34.558Z,5.93
2017-04-24T04:17:00.687Z,5.89
2017-04-24T04:17:26.760Z,5.91
2017-04-24T04:17:52.841Z,5.94
2017-04-24T04:18:18.945Z,5.89
2017-04-24T04:18:45.047Z,5.83
2017-04-24T04:19:11.149Z,5.86
2017-04-24T04:19:37.251Z,5.82
2017-04-24T04:20:03.355Z,5.86
2017-04-24T04:20:29.436Z,5.98
2017-04-24T04:20:55.517Z,5.9
2017-04-24T04:21:21.592Z,5.98
2017-04-24T04:21:47.696Z,5.86
2017-04-24T04:22:13.799Z,5.8
2017-04-24T04:22:39.901Z,5.84
2017-04-24T04:23:05.980Z,5.76
2017-04-24T04:23:32.131Z,5.86
2017-04-24T04:23:58.258Z,5.87
2017-04-24T04:24:24.360Z,5.89
2017-04-24T04:24:50.488Z,5.87
2017-04-24T04:25:16.591Z,5.93
2017-04-24T04:25:42.671Z,5.89
2017-04-24T04:26:08.747Z,5.86
2017-04-24T04:26:34.827Z,5.79
2017-04-24T04:27:00.930Z,5.79
2017-04-24T04:27:27.011Z,5.73
2017-04-24T04:27:53.113Z,5.84
2017-04-24T04:28:19.262Z,5.89
2017-04-24T04:28:45.384Z,5.73
2017-04-24T04:29:11.490Z,5.76
2017-04-24T04:29:37.597Z,5.66
2017-04-24T04:30:03.678Z,5.75
2017-04-24T04:30:29.784Z,5.79
2017-04-24T04:30:55.864Z,5.82
2017-04-24T04:31:21.965Z,5.82
2017-04-24T04:31:48.067Z,5.69
2017-04-24T04:32:14.148Z,5.8
2017-04-24T04:32:40.253Z,5.73
2017-04-24T04:33:06.356Z,5.79
2017-04-24T04:33:32.486Z,5.76
2017-04-24T04:33:58.565Z,5.79
2017-04-24T04:34:24.689Z,5.8
2017-04-24T04:34:50.770Z,5.71
2017-04-24T04:35:16.874Z,5.73
2017-04-24T04:35:42.955Z,5.79
2017-04-24T04:36:09.034Z,5.69
2017-04-24T04:36:35.159Z,5.75
2017-04-24T04:37:01.263Z,5.68
2017-04-24T04:37:27.367Z,5.71
2017-04-24T04:37:53.496Z,5.72
2017-04-24T04:38:19.645Z,5.68
2017-04-24T04:38:45.773Z,5.75
2017-04-24T04:39:11.896Z,5.65
2017-04-24T04:39:38.000Z,5.75
2017-04-24T04:40:04.123Z,5.75
2017-04-24T04:40:30.223Z,5.71
2017-04-24T04:40:56.324Z,5.71
2017-04-24T04:41:22.427Z,5.8
2017-04-24T04:41:48.533Z,5.72
2017-04-24T04:42:14.637Z,5.72
2017-04-24T04:42:40.741Z,5.71
2017-04-24T04:43:06.863Z,5.66
2017-04-24T04:43:32.963Z,5.65
2017-04-24T04:43:59.093Z,5.68
2017-04-24T04:44:25.241Z,5.64
2017-04-24T04:44:51.345Z,5.66
2017-04-24T04:45:17.423Z,5.66
2017-04-24T04:45:43.502Z,5.66
2017-04-24T04:46:09.603Z,5.71
2017-04-24T04:46:35.706Z,5.69
2017-04-24T04:47:01.787Z,5.62
2017-04-24T04:47:27.866Z,5.71
2017-04-24T04:47:53.975Z,5.69
2017-04-24T04:48:20.102Z,5.69
2017-04-24T04:48:46.254Z,5.79
2017-04-24T04:49:12.355Z,5.68
2017-04-24T04:49:38.503Z,5.72
2017-04-24T04:50:04.608Z,5.73
2017-04-24T04:50:30.688Z,5.68
2017-04-24T04:50:56.767Z,5.68
2017-04-24T04:51:22.846Z,5.68
2017-04-24T04:51:48.926Z,5.71
2017-04-24T04:52:15.031Z,5.68
2017-04-24T04:52:41.136Z,5.72
2017-04-24T04:53:07.262Z,5.71
2017-04-24T04:53:33.365Z,5.69
2017-04-24T04:53:59.445Z,5.8
2017-04-24T04:54:25.569Z,5.83
2017-04-24T04:54:51.652Z,5.83
2017-04-24T04:55:17.781Z,5.9
2017-04-24T04:55:43.880Z,5.9
2017-04-24T04:56:09.944Z,5.91
2017-04-24T04:56:36.094Z,5.93
2017-04-24T04:57:02.197Z,5.97
2017-04-24T04:57:28.321Z,5.91
2017-04-24T04:57:54.400Z,5.9
2017-04-24T04:58:20.528Z,5.94
2017-04-24T04:58:46.657Z,5.99
2017-04-24T04:59:12.763Z,5.99
2017-04-24T04:59:38.868Z,6.04
2017-04-24T05:00:04.994Z,6.01
2017-04-24T05:00:31.075Z,6.04
2017-04-24T05:00:57.156Z,6.04
2017-04-24T05:01:23.254Z,6.02
2017-04-24T05:01:49.359Z,6.05
2017-04-24T05:02:15.441Z,5.98
2017-04-24T05:02:41.589Z,6.04
2017-04-24T05:03:07.695Z,6.05
2017-04-24T05:03:33.797Z,6.02
2017-04-24T05:03:59.875Z,6.04
2017-04-24T05:04:26.002Z,6.08
2017-04-24T05:04:52.103Z,6.07
2017-04-24T05:05:18.229Z,6.12
2017-04-24T05:05:44.311Z,6.17
2017-04-24T05:06:10.388Z,6.09
2017-04-24T05:06:36.492Z,6.19
2017-04-24T05:07:02.596Z,6.17
2017-04-24T05:07:28.707Z,6.17
2017-04-24T05:07:54.781Z,6.27
2017-04-24T05:08:20.858Z,6.35
2017-04-24T05:08:47.008Z,6.22
2017-04-24T05:09:13.086Z,6.24
2017-04-24T05:09:39.191Z,6.27
2017-04-24T05:10:05.295Z,6.36
2017-04-24T05:10:31.424Z,6.22
2017-04-24T05:10:57.502Z,6.24
2017-04-24T05:11:23.606Z,6.24
2017-04-24T05:11:49.686Z,6.26
2017-04-24T05:12:15.787Z,6.28
2017-04-24T05:12:41.890Z,6.36
2017-04-24T05:13:07.993Z,6.35
2017-04-24T05:13:34.097Z,6.44
2017-04-24T05:14:00.178Z,6.42
2017-04-24T05:14:26.306Z,6.45
2017-04-24T05:14:52.435Z,6.41
2017-04-24T05:15:18.540Z,6.44
2017-04-24T05:15:44.645Z,6.36
2017-04-24T05:16:10.726Z,6.46
2017-04-24T05:16:36.805Z,6.33
2017-04-24T05:17:02.906Z,6.33
2017-04-24T05:17:29.012Z,6.41
2017-04-24T05:17:55.119Z,6.45
2017-04-24T05:18:21.223Z,6.44
2017-04-24T05:18:47.370Z,6.41
2017-04-24T05:19:13.474Z,6.44
2017-04-24T05:19:39.577Z,6.39
2017-04-24T05:20:05.655Z,6.46
2017-04-24T05:20:31.736Z,6.51
2017-04-24T05:20:57.816Z,6.54
2017-04-24T05:21:23.943Z,6.54
2017-04-24T05:21:50.023Z,6.54
2017-04-24T05:22:16.127Z,6.59
2017-04-24T05:22:42.233Z,6.62
2017-04-24T05:23:08.337Z,6.57
2017-04-24T05:23:34.416Z,6.48
2017-04-24T05:24:00.520Z,6.48
2017-04-24T05:24:26.646Z,6.56
2017-04-24T05:24:52.727Z,6.56
2017-04-24T05:25:18.809Z,6.6
2017-04-24T05:25:44.888Z,6.62
2017-04-24T05:26:10.965Z,6.63
2017-04-24T05:26:37.113Z,6.64
2017-04-24T05:27:03.194Z,6.6
2017-04-24T05:27:29.278Z,6.64
2017-04-24T05:27:55.407Z,6.56
2017-04-24T05:28:21.532Z,6.62
2017-04-24T05:28:47.635Z,6.59
2017-04-24T05:29:13.736Z,6.59
2017-04-24T05:29:39.840Z,6.66
2017-04-24T05:30:05.923Z,6.62
2017-04-24T05:30:32.048Z,6.64
2017-04-24T05:30:58.152Z,6.62
2017-04-24T05:31:24.231Z,6.56
2017-04-24T05:31:50.333Z,6.63
2017-04-24T05:32:16.416Z,6.6
2017-04-24T05:32:42.544Z,6.64
2017-04-24T05:33:08.647Z,6.59
2017-04-24T05:33:34.774Z,6.56
2017-04-24T05:34:00.876Z,6.52
2017-04-24T05:34:27.002Z,6.56
2017-04-24T05:34:53.130Z,6.59
2017-04-24T05:35:19.254Z,6.74
2017-04-24T05:35:45.360Z,6.74
2017-04-24T05:36:11.441Z,6.72
2017-04-24T05:36:37.542Z,6.56
2017-04-24T05:37:03.622Z,6.72
2017-04-24T05:37:29.702Z,6.6
2017-04-24T05:37:55.783Z,6.7
2017-04-24T05:38:21.864Z,6.75
2017-04-24T05:38:48.014Z,6.74
2017-04-24T05:39:14.117Z,6.81
2017-04-24T05:39:40.287Z,6.88
2017-04-24T05:40:06.418Z,6.85
2017-04-24T05:40:32.496Z,6.85
2017-04-24T05:40:58.578Z,6.79
2017-04-24T05:41:24.683Z,6.88
2017-04-24T05:41:50.785Z,6.82
2017-04-24T05:42:16.864Z,6.84
2017-04-24T05:42:42.968Z,6.92
2017-04-24T05:43:09.100Z,6.96
2017-04-24T05:43:35.206Z,6.92
2017-04-24T05:44:01.311Z,6.87
2017-04-24T05:44:27.459Z,6.95
2017-04-24T05:44:53.563Z,6.99
2017-04-24T05:45:19.687Z,6.99
2017-04-24T05:45:45.766Z,7
2017-04-24T05:46:11.848Z,6.95
2017-04-24T05:46:37.932Z,6.92
2017-04-24T05:47:04.013Z,6.97
2017-04-24T05:47:30.140Z,6.92
2017-04-24T05:47:56.245Z,6.99
2017-04-24T05:48:22.348Z,7